Time;durP1;ratioP1;P1;durP2;ratioP2;P2;SDS_P1;SDS_P2;PMS_P1;PMS_P2;Temp;Humidity;BMP_temperature;BMP_pressure;BME280_temperature;BME280_humidity;BME280_pressure;Samples;Min_cycle;Max_cycle;Signal;HPM_P1;HPM_P2
2024/04/10 00:00:06;;;;;;;21.02;5.12;;;;;;;;;;4436891;32;20046;-63
2024/04/10 00:02:31;;;;;;;21.33;5.40;;;;;;;;;;4436870;32;20021;-62
2024/04/10 00:04:57;;;;;;;;;;;;;;;;;;4437043;32;20064;-64
2024/04/10 00:07:22;;;;;;;13.05;4.30;;;;;;;;;;4441833;32;19936;-62
2024/04/10 00:09:47;;;;;;;;;;;;;;;;;;4439971;32;20402;-63
2024/04/10 00:12:12;;;;;;;14.98;5.03;;;;;;;;;;4451694;32;19936;-63
2024/04/10 00:14:38;;;;;;;16.70;4.40;;;;;;;;;;4453793;32;20460;-63
2024/04/10 00:17:03;;;;;;;;;;;;;;;;;;4453062;32;20389;-62
2024/04/10 00:19:28;;;;;;;10.75;4.20;;;;;;;;;;4439510;32;19941;-63
2024/04/10 00:21:54;;;;;;;22.65;4.32;;;;;;;;;;4448005;32;20071;-63
2024/04/10 00:24:19;;;;;;;13.80;4.53;;;;;;;;;;4437178;32;20238;-62
2024/04/10 00:26:48;;;;;;;15.32;4.68;;;;;;;;;;4438072;32;20079;-63
2024/04/10 00:29:13;;;;;;;16.48;4.75;;;;;;;;;;4435199;32;20022;-62
2024/04/10 00:31:38;;;;;;;15.68;4.80;;;;;;;;;;4438026;32;20025;-62
2024/04/10 00:34:04;;;;;;;18.17;6.78;;;;;;;;;;4435041;32;20092;-63
2024/04/10 00:36:30;;;;;;;;;;;;;;;;;;4439484;32;20393;-63
2024/04/10 00:38:55;;;;;;;19.67;5.45;;;;;;;;;;4445166;32;19941;-62
2024/04/10 00:41:20;;;;;;;20.27;4.45;;;;;;;;;;4436193;32;20048;-63
2024/04/10 00:43:45;;;;;;;19.95;4.78;;;;;;;;;;4437693;32;20022;-62
2024/04/10 00:46:14;;;;;;;14.43;4.87;;;;;;;;;;4438367;32;20092;-62
2024/04/10 00:48:40;;;;;;;19.15;4.82;;;;;;;;;;4434987;32;20103;-62
2024/04/10 00:51:09;;;;;;;17.85;4.65;;;;;;;;;;4435727;32;20026;-63
2024/04/10 00:53:35;;;;;;;18.65;4.55;;;;;;;;;;4438049;32;20033;-62
2024/04/10 00:56:00;;;;;;;;;;;;;;;;;;4438089;32;20061;-63
2024/04/10 00:58:25;;;;;;;15.57;4.82;;;;;;;;;;4436143;32;19994;-62
2024/04/10 01:00:52;;;;;;;14.95;4.25;;;;;;;;;;4437573;32;20030;-63
2024/04/10 01:03:18;;;;;;;15.80;4.07;;;;;;;;;;4437371;32;20138;-63
2024/04/10 01:05:43;;;;;;;15.15;4.32;;;;;;;;;;4436326;32;20370;-62
2024/04/10 01:08:08;;;;;;;18.25;4.25;;;;;;;;;;4439506;32;20120;-63
2024/04/10 01:10:34;;;;;;;15.27;3.95;;;;;;;;;;4452572;32;20055;-62
2024/04/10 01:13:00;;;;;;;17.42;4.62;;;;;;;;;;4436534;32;20092;-63
2024/04/10 01:15:25;;;;;;;14.10;4.12;;;;;;;;;;4437196;32;20123;-63
2024/04/10 01:17:50;;;;;;;17.83;4.45;;;;;;;;;;4436780;32;20405;-63
2024/04/10 01:20:16;;;;;;;18.85;5.25;;;;;;;;;;4435381;32;20456;-62
2024/04/10 01:22:41;;;;;;;14.13;4.70;;;;;;;;;;4437447;32;20026;-64
2024/04/10 01:25:06;;;;;;;17.52;4.45;;;;;;;;;;4441992;32;20354;-63
2024/04/10 01:27:34;;;;;;;15.88;5.10;;;;;;;;;;4451570;32;20048;-63
2024/04/10 01:29:59;;;;;;;20.50;5.43;;;;;;;;;;4450265;32;20542;-63
2024/04/10 01:32:24;;;;;;;;;;;;;;;;;;4451618;32;20037;-63
2024/04/10 01:34:49;;;;;;;19.25;5.25;;;;;;;;;;4452195;32;19994;-63
2024/04/10 01:37:14;;;;;;;;;;;;;;;;;;4451024;32;20138;-62
2024/04/10 01:39:40;;;;;;;21.48;4.57;;;;;;;;;;4445118;32;19984;-64
2024/04/10 01:42:05;;;;;;;16.40;4.18;;;;;;;;;;4436595;32;20043;-63
2024/04/10 01:44:30;;;;;;;;;;;;;;;;;;4437300;32;20074;-62
2024/04/10 01:46:55;;;;;;;10.25;4.60;;;;;;;;;;4436505;32;20054;-62
2024/04/10 01:49:21;;;;;;;12.82;4.10;;;;;;;;;;4436006;32;20377;-63
2024/04/10 01:51:46;;;;;;;17.48;5.40;;;;;;;;;;4436096;32;20403;-64
2024/04/10 01:54:11;;;;;;;15.15;4.03;;;;;;;;;;4435519;32;20086;-63
2024/04/10 01:56:36;;;;;;;24.85;5.50;;;;;;;;;;4449104;32;20025;-63
2024/04/10 01:59:01;;;;;;;17.20;4.45;;;;;;;;;;4451624;32;20029;-63
2024/04/10 02:01:26;;;;;;;13.88;4.07;;;;;;;;;;4450287;32;20021;-62
2024/04/10 02:03:52;;;;;;;15.20;4.45;;;;;;;;;;4450852;32;20021;-62
2024/04/10 02:06:17;;;;;;;20.88;5.40;;;;;;;;;;4451666;32;20339;-63
2024/04/10 02:08:42;;;;;;;23.27;4.85;;;;;;;;;;4452345;32;20037;-63
2024/04/10 02:11:23;;;;;;;;;;;;;;;;;;4441077;32;20048;-63
2024/04/10 02:13:48;;;;;;;18.08;4.57;;;;;;;;;;4435154;32;19933;-64
2024/04/10 02:16:13;;;;;;;15.77;3.85;;;;;;;;;;4435322;32;20052;-64
2024/04/10 02:18:39;;;;;;;17.15;4.40;;;;;;;;;;4434620;32;20079;-64
2024/04/10 02:21:04;;;;;;;19.73;5.62;;;;;;;;;;4434764;32;20120;-63
2024/04/10 02:23:30;;;;;;;22.50;4.80;;;;;;;;;;4434383;32;20095;-63
2024/04/10 02:25:55;;;;;;;;;;;;;;;;;;4447495;32;20021;-63
2024/04/10 02:28:20;;;;;;;23.25;4.70;;;;;;;;;;4449833;32;19990;-64
2024/04/10 02:30:45;;;;;;;;;;;;;;;;;;4436516;32;20133;-63
2024/04/10 02:33:10;;;;;;;20.30;5.00;;;;;;;;;;4435680;32;19980;-64
2024/04/10 02:35:35;;;;;;;;;;;;;;;;;;4452186;32;20440;-64
2024/04/10 02:38:01;;;;;;;17.27;4.37;;;;;;;;;;4450092;32;19992;-63
2024/04/10 02:40:29;;;;;;;13.90;3.85;;;;;;;;;;4439890;32;20018;-64
2024/04/10 02:43:04;;;;;;;19.75;3.65;;;;;;;;;;4438287;32;20079;-64
2024/04/10 02:45:29;;;;;;;13.07;3.95;;;;;;;;;;4438360;32;20021;-64
2024/04/10 02:47:54;;;;;;;;;;;;;;;;;;4438950;32;20113;-64
2024/04/10 02:50:19;;;;;;;16.73;4.40;;;;;;;;;;4436578;32;19976;-64
2024/04/10 02:52:44;;;;;;;24.50;4.62;;;;;;;;;;4439572;32;20334;-64
2024/04/10 02:55:10;;;;;;;22.42;4.85;;;;;;;;;;4438985;32;20045;-64
2024/04/10 02:57:35;;;;;;;17.52;4.20;;;;;;;;;;4453805;32;20033;-64
2024/04/10 03:00:00;;;;;;;18.45;4.53;;;;;;;;;;4440724;32;20029;-64
2024/04/10 03:02:25;;;;;;;;;;;;;;;;;;4437179;32;20048;-64
2024/04/10 03:04:51;;;;;;;20.98;4.10;;;;;;;;;;4437505;32;20286;-63
2024/04/10 03:07:16;;;;;;;;;;;;;;;;;;4436877;32;20274;-63
2024/04/10 03:09:42;;;;;;;16.73;3.60;;;;;;;;;;4437345;32;19959;-63
2024/04/10 03:12:07;;;;;;;19.70;4.15;;;;;;;;;;4449451;32;20144;-63
2024/04/10 03:14:33;;;;;;;;;;;;;;;;;;4453165;32;20355;-63
2024/04/10 03:16:58;;;;;;;18.12;3.95;;;;;;;;;;4430698;32;19977;-64
2024/04/10 03:19:24;;;;;;;;;;;;;;;;;;4438548;32;20041;-63
2024/04/10 03:21:49;;;;;;;23.00;5.50;;;;;;;;;;4439397;32;19933;-63
2024/04/10 03:24:14;;;;;;;14.50;4.40;;;;;;;;;;4438616;32;20059;-62
2024/04/10 03:26:39;;;;;;;19.00;4.85;;;;;;;;;;4438500;32;20057;-65
2024/04/10 03:29:04;;;;;;;19.60;4.20;;;;;;;;;;4438296;32;20053;-63
2024/04/10 03:31:29;;;;;;;20.45;5.25;;;;;;;;;;4437102;32;20037;-63
2024/04/10 03:33:55;;;;;;;;;;;;;;;;;;4437063;32;20096;-64
2024/04/10 03:36:20;;;;;;;18.87;4.62;;;;;;;;;;4424631;32;19976;-64
2024/04/10 03:38:45;;;;;;;18.92;4.25;;;;;;;;;;4437052;32;20042;-63
2024/04/10 03:41:10;;;;;;;12.98;3.17;;;;;;;;;;4432392;32;20026;-63
2024/04/10 03:43:35;;;;;;;21.42;4.18;;;;;;;;;;4453450;32;20026;-63
2024/04/10 03:46:02;;;;;;;18.70;3.90;;;;;;;;;;4453033;32;20037;-63
2024/04/10 03:48:27;;;;;;;16.85;4.35;;;;;;;;;;4452540;32;20041;-62
2024/04/10 03:50:52;;;;;;;;;;;;;;;;;;4452809;32;20094;-63
2024/04/10 03:53:17;;;;;;;25.33;5.50;;;;;;;;;;4452667;32;19947;-63
2024/04/10 03:55:43;;;;;;;16.98;4.22;;;;;;;;;;4452613;32;20025;-62
2024/04/10 03:58:08;;;;;;;;;;;;;;;;;;4439440;32;20029;-63
2024/04/10 04:00:36;;;;;;;20.90;3.90;;;;;;;;;;4451965;32;19944;-63
2024/04/10 04:03:01;;;;;;;12.63;3.58;;;;;;;;;;4436685;32;20045;-64
2024/04/10 04:05:26;;;;;;;;;;;;;;;;;;4453213;32;20033;-63
2024/04/10 04:07:52;;;;;;;20.23;4.70;;;;;;;;;;4439493;32;19948;-64
2024/04/10 04:10:17;;;;;;;22.17;18.60;;;;;;;;;;4451219;32;20087;-63
2024/04/10 04:12:42;;;;;;;15.00;4.75;;;;;;;;;;4438164;32;20089;-63
2024/04/10 04:15:07;;;;;;;14.00;4.32;;;;;;;;;;4453568;32;20029;-63
2024/04/10 04:17:32;;;;;;;;;;;;;;;;;;4452329;32;20051;-63
2024/04/10 04:19:58;;;;;;;21.73;6.10;;;;;;;;;;4437893;32;19994;-62
2024/04/10 04:22:23;;;;;;;;;;;;;;;;;;4452152;32;20371;-63
2024/04/10 04:24:48;;;;;;;21.15;5.47;;;;;;;;;;4432541;32;19948;-64
2024/04/10 04:27:14;;;;;;;;;;;;;;;;;;4424338;32;20125;-63
2024/04/10 04:29:39;;;;;;;14.43;4.25;;;;;;;;;;4435867;32;19973;-64
2024/04/10 04:32:04;;;;;;;16.52;4.12;;;;;;;;;;4448461;32;20033;-63
2024/04/10 04:34:30;;;;;;;;;;;;;;;;;;4438257;32;20060;-63
2024/04/10 04:36:55;;;;;;;13.82;3.78;;;;;;;;;;4451565;32;20215;-63
2024/04/10 04:39:20;;;;;;;16.85;5.43;;;;;;;;;;4452080;32;20057;-63
2024/04/10 04:41:45;;;;;;;15.70;4.80;;;;;;;;;;4428983;32;20041;-63
2024/04/10 04:44:11;;;;;;;28.95;4.82;;;;;;;;;;4436497;32;20025;-63
2024/04/10 04:46:37;;;;;;;19.30;5.30;;;;;;;;;;4423599;32;20336;-63
2024/04/10 04:49:02;;;;;;;;;;;;;;;;;;4436074;32;20083;-64
2024/04/10 04:51:28;;;;;;;17.17;4.50;;;;;;;;;;4437953;32;19965;-63
2024/04/10 04:53:54;;;;;;;16.12;4.40;;;;;;;;;;4437121;32;20158;-62
2024/04/10 04:56:19;;;;;;;;;;;;;;;;;;4442573;32;20033;-64
2024/04/10 04:58:44;;;;;;;25.85;4.65;;;;;;;;;;4452780;32;19947;-63
2024/04/10 05:01:09;;;;;;;17.50;5.43;;;;;;;;;;4451183;32;20159;-64
2024/04/10 05:06:18;;;;;;;17.08;3.80;;;;;;;;;;4451295;32;20068;-63
2024/04/10 05:08:44;;;;;;;;;;;;;;;;;;4436964;32;20038;-64
2024/04/10 05:11:09;;;;;;;20.75;4.90;;;;;;;;;;4447160;32;19975;-63
2024/04/10 05:13:35;;;;;;;17.37;3.87;;;;;;;;;;4436059;32;20029;-62
2024/04/10 05:16:00;;;;;;;19.05;4.03;;;;;;;;;;4437124;32;20363;-62
2024/04/10 05:18:25;;;;;;;21.85;5.00;;;;;;;;;;4436055;32;20041;-63
2024/04/10 05:20:51;;;;;;;22.95;3.78;;;;;;;;;;4436680;32;20116;-62
2024/04/10 05:23:16;;;;;;;20.20;4.50;;;;;;;;;;4436754;32;20332;-63
2024/04/10 05:25:41;;;;;;;;;;;;;;;;;;4448369;32;20026;-63
2024/04/10 05:28:06;;;;;;;21.23;4.28;;;;;;;;;;4444350;32;19952;-62
2024/04/10 05:30:32;;;;;;;;;;;;;;;;;;4442761;32;20116;-62
2024/04/10 05:32:57;;;;;;;11.75;3.10;;;;;;;;;;4430131;32;19978;-63
2024/04/10 05:35:22;;;;;;;;;;;;;;;;;;4443109;32;20570;-63
2024/04/10 05:37:47;;;;;;;18.87;5.15;;;;;;;;;;4440649;32;19941;-62
2024/04/10 05:40:13;;;;;;;21.17;3.80;;;;;;;;;;4435460;32;20053;-63
2024/04/10 05:42:40;;;;;;;18.02;4.03;;;;;;;;;;4436717;32;20049;-62
2024/04/10 05:45:09;;;;;;;15.32;3.65;;;;;;;;;;4434127;32;20068;-63
2024/04/10 05:47:35;;;;;;;13.65;4.22;;;;;;;;;;4435099;32;20140;-63
2024/04/10 05:50:00;;;;;;;17.52;3.70;;;;;;;;;;4434763;32;20068;-64
2024/04/10 05:52:25;;;;;;;16.05;4.68;;;;;;;;;;4437851;32;20037;-64
2024/04/10 05:54:52;;;;;;;14.55;4.72;;;;;;;;;;4435861;32;20076;-63
2024/04/10 05:57:17;;;;;;;18.10;4.35;;;;;;;;;;4421439;32;20021;-63
2024/04/10 05:59:42;;;;;;;;;;;;;;;;;;4422200;32;20155;-63
2024/04/10 06:02:07;;;;;;;17.58;4.43;;;;;;;;;;4434960;32;20001;-63
2024/04/10 06:04:33;;;;;;;23.08;3.33;;;;;;;;;;4434376;32;20040;-63
2024/04/10 06:06:58;;;;;;;19.80;5.22;;;;;;;;;;4426715;32;20135;-62
2024/04/10 06:09:23;;;;;;;17.30;3.40;;;;;;;;;;4449736;32;20025;-62
2024/04/10 06:11:49;;;;;;;12.43;3.45;;;;;;;;;;4437363;32;20029;-62
2024/04/10 06:14:14;;;;;;;18.83;4.57;;;;;;;;;;4449544;32;20020;-63
2024/04/10 06:16:39;;;;;;;11.25;3.05;;;;;;;;;;4449876;32;20140;-63
2024/04/10 06:19:04;;;;;;;17.75;3.92;;;;;;;;;;4450432;32;20063;-63
2024/04/10 06:21:29;;;;;;;21.40;4.03;;;;;;;;;;4444146;32;20064;-63
2024/04/10 06:23:54;;;;;;;17.23;6.85;;;;;;;;;;4434356;32;20045;-63
2024/04/10 06:26:20;;;;;;;17.90;3.85;;;;;;;;;;4434683;32;20202;-63
2024/04/10 06:28:45;;;;;;;23.92;3.65;;;;;;;;;;4447546;32;20021;-62
2024/04/10 06:31:12;;;;;;;;;;;;;;;;;;4451369;32;20508;-63
2024/04/10 06:33:38;;;;;;;10.75;3.28;;;;;;;;;;4437032;32;20327;-62
2024/04/10 06:36:03;;;;;;;;;;;;;;;;;;4450145;32;20088;-63
2024/04/10 06:38:29;;;;;;;13.65;3.15;;;;;;;;;;4448809;32;19948;-63
2024/04/10 06:40:55;;;;;;;21.33;3.37;;;;;;;;;;4432604;32;20041;-63
2024/04/10 06:43:20;;;;;;;;;;;;;;;;;;4436121;32;20455;-61
2024/04/10 06:45:54;;;;;;;16.30;3.47;;;;;;;;;;4449397;32;19932;-63
2024/04/10 06:48:20;;;;;;;15.25;3.72;;;;;;;;;;4449695;32;20101;-64
2024/04/10 06:50:45;;;;;;;;;;;;;;;;;;4450310;32;20071;-63
2024/04/10 06:53:12;;;;;;;28.17;9.20;;;;;;;;;;4441800;32;20262;-63
2024/04/10 06:55:38;;;;;;;18.20;7.62;;;;;;;;;;4433259;32;20479;-63
2024/04/10 06:58:03;;;;;;;;;;;;;;;;;;4432691;32;20030;-65
2024/04/10 07:00:29;;;;;;;22.83;3.42;;;;;;;;;;4432429;32;19960;-62
2024/04/10 07:02:54;;;;;;;22.02;3.70;;;;;;;;;;4433940;32;20038;-63
2024/04/10 07:05:19;;;;;;;;;;;;;;;;;;4433258;32;20045;-63
2024/04/10 07:07:44;;;;;;;16.02;3.37;;;;;;;;;;4431768;32;19952;-63
2024/04/10 07:10:09;;;;;;;13.15;3.25;;;;;;;;;;4449167;32;20109;-63
2024/04/10 07:12:35;;;;;;;14.63;3.65;;;;;;;;;;4448954;32;20033;-63
2024/04/10 07:15:00;;;;;;;;;;;;;;;;;;4435652;32;20049;-62
2024/04/10 07:17:25;;;;;;;18.55;3.08;;;;;;;;;;4449033;32;20377;-63
2024/04/10 07:19:50;;;;;;;12.65;4.40;;;;;;;;;;4447665;32;20148;-62
2024/04/10 07:22:16;;;;;;;19.48;4.28;;;;;;;;;;4447003;32;20113;-63
2024/04/10 07:24:41;;;;;;;12.95;3.05;;;;;;;;;;4447570;32;20082;-62
2024/04/10 07:27:07;;;;;;;21.85;15.02;;;;;;;;;;4449454;32;20045;-62
2024/04/10 07:29:32;;;;;;;15.45;2.78;;;;;;;;;;4453791;32;20382;-62
2024/04/10 07:31:57;;;;;;;21.67;4.40;;;;;;;;;;4452625;32;20017;-63
2024/04/10 07:34:22;;;;;;;35.08;29.52;;;;;;;;;;4437769;32;20381;-62
2024/04/10 07:36:48;;;;;;;16.62;5.43;;;;;;;;;;4448248;32;20017;-62
2024/04/10 07:39:14;;;;;;;13.68;5.47;;;;;;;;;;4437359;32;20050;-62
2024/04/10 07:41:40;;;;;;;14.95;3.37;;;;;;;;;;4438529;32;20099;-63
2024/04/10 07:44:05;;;;;;;18.85;5.40;;;;;;;;;;4437478;32;20403;-62
2024/04/10 07:46:30;;;;;;;13.27;3.20;;;;;;;;;;4438642;32;20104;-63
2024/04/10 07:48:57;;;;;;;15.63;3.00;;;;;;;;;;4436506;32;20046;-63
2024/04/10 07:51:23;;;;;;;11.38;6.97;;;;;;;;;;4438784;32;20021;-63
2024/04/10 07:53:48;;;;;;;;;;;;;;;;;;4438497;32;20052;-62
2024/04/10 07:56:13;;;;;;;12.77;4.15;;;;;;;;;;4453414;32;19933;-63
2024/04/10 07:58:38;;;;;;;19.92;15.55;;;;;;;;;;4452932;32;20030;-63
2024/04/10 08:01:04;;;;;;;12.60;3.50;;;;;;;;;;4453730;32;20021;-63
2024/04/10 08:03:30;;;;;;;13.40;3.00;;;;;;;;;;4452059;32;20516;-63
2024/04/10 08:05:57;;;;;;;;;;;;;;;;;;4454098;32;20364;-64
2024/04/10 08:08:23;;;;;;;19.62;4.57;;;;;;;;;;4439792;32;19932;-62
2024/04/10 08:10:57;;;;;;;17.52;4.68;;;;;;;;;;4452519;32;20488;-62
2024/04/10 08:13:22;;;;;;;10.10;3.90;;;;;;;;;;4452114;32;20179;-62
2024/04/10 08:16:00;;;;;;;15.70;6.55;;;;;;;;;;4439126;32;20049;-64
2024/04/10 08:18:29;;;;;;;11.20;4.15;;;;;;;;;;4453678;32;20089;-63
2024/04/10 08:20:58;;;;;;;14.32;3.55;;;;;;;;;;4449605;32;20033;-63
2024/04/10 08:23:24;;;;;;;12.27;6.75;;;;;;;;;;4437990;32;20146;-62
2024/04/10 08:25:49;;;;;;;15.05;2.72;;;;;;;;;;4437489;32;20354;-63
2024/04/10 08:28:17;;;;;;;;;;;;;;;;;;4438442;32;20370;-64
2024/04/10 08:30:42;;;;;;;;;;;;;;;;;;4436389;32;19937;-61
2024/04/10 08:33:07;;;;;;;11.05;3.47;;;;;;;;;;4438332;32;19933;-62
2024/04/10 08:35:34;;;;;;;11.48;2.70;;;;;;;;;;4436075;32;20138;-62
2024/04/10 08:37:59;;;;;;;16.55;14.87;;;;;;;;;;4436035;32;20125;-62
2024/04/10 08:40:25;;;;;;;13.07;3.22;;;;;;;;;;4437053;32;20022;-62
2024/04/10 08:42:50;;;;;;;9.90;3.33;;;;;;;;;;4437584;32;20339;-64
2024/04/10 08:45:16;;;;;;;8.73;2.70;;;;;;;;;;4436311;32;20037;-62
2024/04/10 08:47:41;;;;;;;;;;;;;;;;;;4435529;32;20130;-63
2024/04/10 08:50:06;;;;;;;10.23;2.55;;;;;;;;;;4434600;32;19995;-63
2024/04/10 08:52:32;;;;;;;10.93;2.95;;;;;;;;;;4449495;32;20021;-63
2024/04/10 08:54:58;;;;;;;11.07;2.40;;;;;;;;;;4451679;32;20048;-63
2024/04/10 08:57:23;;;;;;;11.10;2.65;;;;;;;;;;4448624;32;20093;-63
2024/04/10 08:59:48;;;;;;;11.93;2.37;;;;;;;;;;4448167;32;20056;-63
2024/04/10 09:02:13;;;;;;;13.43;3.25;;;;;;;;;;4441917;32;20026;-64
2024/04/10 09:04:42;;;;;;;12.25;3.00;;;;;;;;;;4440628;32;20366;-63
2024/04/10 09:07:07;;;;;;;7.12;2.10;;;;;;;;;;4447411;32;20033;-63
2024/04/10 09:09:32;;;;;;;8.30;3.00;;;;;;;;;;4444821;32;20082;-63
2024/04/10 09:11:57;;;;;;;8.35;2.20;;;;;;;;;;4441807;32;20052;-63
2024/04/10 09:14:22;;;;;;;8.73;2.70;;;;;;;;;;4441107;32;20710;-64
2024/04/10 09:16:48;;;;;;;16.85;2.55;;;;;;;;;;4445633;32;20030;-63
2024/04/10 09:19:15;;;;;;;10.40;2.60;;;;;;;;;;4439927;32;20029;-64
2024/04/10 09:21:40;;;;;;;13.25;3.15;;;;;;;;;;4451189;32;20091;-63
2024/04/10 09:24:08;;;;;;;9.45;2.30;;;;;;;;;;4450238;32;20025;-64
2024/04/10 09:26:35;;;;;;;9.52;2.20;;;;;;;;;;4451085;32;20049;-63
2024/04/10 09:29:11;;;;;;;8.45;2.20;;;;;;;;;;4450988;32;20084;-64
2024/04/10 09:31:36;;;;;;;11.05;2.92;;;;;;;;;;4434720;32;20046;-64
2024/04/10 09:34:02;;;;;;;5.45;1.90;;;;;;;;;;4434956;32;20059;-64
2024/04/10 09:36:30;;;;;;;5.97;1.85;;;;;;;;;;4449040;32;20025;-63
2024/04/10 09:38:58;;;;;;;14.25;3.95;;;;;;;;;;4450308;32;20086;-64
2024/04/10 09:41:26;;;;;;;6.75;2.20;;;;;;;;;;4450664;32;20037;-63
2024/04/10 09:43:54;;;;;;;10.57;2.80;;;;;;;;;;4450641;32;20399;-65
2024/04/10 09:46:20;;;;;;;11.93;2.65;;;;;;;;;;4452096;32;20025;-64
2024/04/10 09:48:47;;;;;;;11.18;2.95;;;;;;;;;;4450454;32;20033;-63
2024/04/10 09:51:14;;;;;;;5.22;2.17;;;;;;;;;;4449926;32;20025;-63
2024/04/10 09:53:39;;;;;;;9.27;1.80;;;;;;;;;;4452400;32;20021;-64
2024/04/10 09:56:05;;;;;;;7.55;4.22;;;;;;;;;;4444514;32;20045;-62
2024/04/10 09:58:34;;;;;;;10.18;2.58;;;;;;;;;;4435443;32;20103;-65
2024/04/10 10:01:00;;;;;;;8.02;2.22;;;;;;;;;;4435295;32;20368;-63
2024/04/10 10:03:25;;;;;;;7.03;2.20;;;;;;;;;;4436599;32;20029;-63
2024/04/10 10:06:00;;;;;;;10.23;2.67;;;;;;;;;;4435573;32;20034;-62
2024/04/10 10:08:25;;;;;;;8.63;6.22;;;;;;;;;;4434584;32;20415;-65
2024/04/10 10:10:52;;;;;;;6.72;2.00;;;;;;;;;;4434848;32;20029;-64
2024/04/10 10:13:30;;;;;;;6.25;1.70;;;;;;;;;;4442741;32;20059;-63
2024/04/10 10:15:59;;;;;;;11.50;2.55;;;;;;;;;;4451349;32;20048;-62
2024/04/10 10:18:26;;;;;;;9.05;1.80;;;;;;;;;;4451930;32;20045;-63
2024/04/10 10:21:07;;;;;;;5.30;1.50;;;;;;;;;;4450344;32;20061;-64
2024/04/10 10:23:33;;;;;;;7.30;1.80;;;;;;;;;;4434616;32;20033;-62
2024/04/10 10:25:58;;;;;;;5.37;1.70;;;;;;;;;;4434451;32;20075;-63
2024/04/10 10:28:23;;;;;;;8.23;1.98;;;;;;;;;;4428123;32;20303;-63
2024/04/10 10:30:49;;;;;;;8.55;2.60;;;;;;;;;;4445482;32;20022;-63
2024/04/10 10:33:17;;;;;;;6.90;2.03;;;;;;;;;;4436201;32;20041;-63
2024/04/10 10:35:42;;;;;;;8.45;1.75;;;;;;;;;;4436111;32;20034;-63
2024/04/10 10:38:08;;;;;;;3.92;1.60;;;;;;;;;;4436073;32;20453;-64
2024/04/10 10:40:33;;;;;;;6.78;2.40;;;;;;;;;;4436193;32;20086;-63
2024/04/10 10:43:08;;;;;;;5.30;2.08;;;;;;;;;;4434825;32;20304;-64
2024/04/10 10:45:34;;;;;;;3.67;1.85;;;;;;;;;;4435404;32;20071;-63
2024/04/10 10:48:00;;;;;;;8.43;7.72;;;;;;;;;;4448762;32;20041;-65
2024/04/10 10:50:25;;;;;;;9.25;1.98;;;;;;;;;;4451394;32;20029;-64
2024/04/10 10:52:50;;;;;;;10.32;5.93;;;;;;;;;;4451750;32;20372;-63
2024/04/10 10:55:16;;;;;;;4.97;1.92;;;;;;;;;;4451781;32;20038;-63
2024/04/10 10:57:41;;;;;;;7.97;1.80;;;;;;;;;;4450283;32;20307;-64
2024/04/10 11:00:16;;;;;;;6.72;2.00;;;;;;;;;;4451575;32;20047;-64
2024/04/10 11:02:42;;;;;;;4.97;1.80;;;;;;;;;;4436656;32;20323;-62
2024/04/10 11:05:11;;;;;;;6.03;2.67;;;;;;;;;;4436801;32;20448;-63
2024/04/10 11:07:36;;;;;;;8.95;2.65;;;;;;;;;;4437629;32;20100;-63
2024/04/10 11:10:08;;;;;;;4.57;1.60;;;;;;;;;;4438000;32;20022;-62
2024/04/10 11:12:34;;;;;;;8.35;1.92;;;;;;;;;;4438079;32;20053;-64
2024/04/10 11:15:05;;;;;;;7.90;4.28;;;;;;;;;;4437073;32;20483;-63
2024/04/10 11:17:31;;;;;;;9.65;3.12;;;;;;;;;;4439070;32;20047;-64
2024/04/10 11:19:56;;;;;;;5.62;1.75;;;;;;;;;;4444618;32;20166;-63
2024/04/10 11:22:21;;;;;;;11.40;9.90;;;;;;;;;;4453819;32;20021;-64
2024/04/10 11:24:46;;;;;;;4.87;2.72;;;;;;;;;;4438676;32;20093;-64
2024/04/10 11:27:12;;;;;;;7.25;2.30;;;;;;;;;;4439826;32;20116;-64
2024/04/10 11:29:37;;;;;;;5.78;1.87;;;;;;;;;;4451864;32;20025;-64
2024/04/10 11:32:03;;;;;;;6.43;1.60;;;;;;;;;;4453521;32;20074;-64
2024/04/10 11:34:29;;;;;;;7.95;2.03;;;;;;;;;;4434838;32;20121;-63
2024/04/10 11:36:54;;;;;;;7.12;1.87;;;;;;;;;;4430494;32;20021;-63
2024/04/10 11:39:21;;;;;;;7.50;1.77;;;;;;;;;;4437858;32;20072;-64
2024/04/10 11:41:46;;;;;;;4.40;1.80;;;;;;;;;;4435914;32;20379;-64
2024/04/10 11:44:11;;;;;;;4.57;1.73;;;;;;;;;;4438445;32;20074;-64
2024/04/10 11:46:36;;;;;;;4.93;3.15;;;;;;;;;;4436761;32;20056;-64
2024/04/10 11:49:01;;;;;;;4.50;2.25;;;;;;;;;;4436809;32;20065;-64
2024/04/10 11:51:27;;;;;;;8.65;2.47;;;;;;;;;;4436399;32;20441;-64
2024/04/10 11:53:52;;;;;;;7.10;2.63;;;;;;;;;;4438031;32;20033;-64
2024/04/10 11:56:18;;;;;;;8.05;1.92;;;;;;;;;;4438614;32;20504;-64
2024/04/10 11:58:43;;;;;;;7.82;1.83;;;;;;;;;;4438407;32;20402;-64
2024/04/10 12:01:10;;;;;;;5.53;1.80;;;;;;;;;;4436927;32;20052;-64
2024/04/10 12:03:36;;;;;;;8.90;2.22;;;;;;;;;;4438099;32;20377;-65
2024/04/10 12:06:04;;;;;;;8.60;2.65;;;;;;;;;;4453972;32;20083;-63
2024/04/10 12:08:29;;;;;;;7.28;1.85;;;;;;;;;;4452654;32;20090;-65
2024/04/10 12:10:54;;;;;;;5.87;2.03;;;;;;;;;;4454024;32;20414;-65
2024/04/10 12:13:20;;;;;;;8.93;2.08;;;;;;;;;;4454093;32;20068;-65
2024/04/10 12:15:45;;;;;;;7.63;3.70;;;;;;;;;;4452372;32;20021;-65
2024/04/10 12:18:10;;;;;;;9.33;2.23;;;;;;;;;;4450681;32;20182;-64
2024/04/10 12:20:35;;;;;;;5.70;2.93;;;;;;;;;;4437896;32;20121;-64
2024/04/10 12:23:00;;;;;;;6.20;2.22;;;;;;;;;;4437657;32;20148;-64
2024/04/10 12:25:25;;;;;;;5.30;2.23;;;;;;;;;;4437122;32;20018;-65
2024/04/10 12:27:50;;;;;;;7.37;4.47;;;;;;;;;;4437979;32;20191;-65
2024/04/10 12:30:16;;;;;;;4.93;1.67;;;;;;;;;;4437852;32;20064;-63
2024/04/10 12:32:41;;;;;;;6.82;3.03;;;;;;;;;;4438117;32;20414;-63
2024/04/10 12:38:03;;;;;;;5.82;2.17;;;;;;;;;;4438092;32;20130;-63
2024/04/10 12:40:28;;;;;;;7.47;1.60;;;;;;;;;;4438068;32;20055;-63
2024/04/10 12:42:53;;;;;;;7.68;2.28;;;;;;;;;;4436933;32;20030;-64
2024/04/10 12:45:18;;;;;;;6.40;2.22;;;;;;;;;;4449554;32;20037;-64
2024/04/10 12:47:43;;;;;;;4.10;1.85;;;;;;;;;;4444433;32;20034;-64
2024/04/10 12:50:09;;;;;;;6.22;1.83;;;;;;;;;;4443111;32;20083;-63
2024/04/10 12:52:35;;;;;;;3.83;1.53;;;;;;;;;;4438208;32;20448;-65
2024/04/10 12:55:00;;;;;;;9.70;2.20;;;;;;;;;;4448922;32;20117;-65
2024/04/10 12:57:25;;;;;;;5.55;2.00;;;;;;;;;;4436142;32;20026;-65
2024/04/10 12:59:52;;;;;;;6.60;3.35;;;;;;;;;;4437385;32;20052;-63
2024/04/10 13:02:18;;;;;;;6.62;1.65;;;;;;;;;;4434077;32;20085;-65
2024/04/10 13:04:43;;;;;;;4.93;1.47;;;;;;;;;;4448674;32;20408;-65
2024/04/10 13:07:08;;;;;;;5.43;2.25;;;;;;;;;;4448343;32;20112;-65
2024/04/10 13:09:33;;;;;;;4.97;2.78;;;;;;;;;;4450992;32;20121;-65
2024/04/10 13:11:58;;;;;;;5.95;2.45;;;;;;;;;;4446694;32;20098;-64
2024/04/10 13:14:23;;;;;;;4.37;1.70;;;;;;;;;;4435660;32;20021;-63
2024/04/10 13:16:49;;;;;;;6.05;1.80;;;;;;;;;;4434067;32;20576;-64
2024/04/10 13:19:14;;;;;;;6.20;2.08;;;;;;;;;;4433708;32;20045;-64
2024/04/10 13:21:39;;;;;;;7.97;2.20;;;;;;;;;;4434286;32;20060;-65
2024/04/10 13:24:05;;;;;;;6.65;1.60;;;;;;;;;;4434680;32;20057;-64
2024/04/10 13:26:30;;;;;;;2.80;1.40;;;;;;;;;;4436795;32;20073;-64
2024/04/10 13:28:55;;;;;;;5.55;1.98;;;;;;;;;;4448185;32;20383;-64
2024/04/10 13:31:23;;;;;;;8.80;2.67;;;;;;;;;;4448914;32;20146;-64
2024/04/10 13:33:50;;;;;;;8.05;3.15;;;;;;;;;;4436006;32;20184;-64
2024/04/10 13:36:16;;;;;;;4.15;1.85;;;;;;;;;;4436809;32;20025;-63
2024/04/10 13:38:42;;;;;;;6.05;3.60;;;;;;;;;;4451825;32;20051;-63
2024/04/10 13:41:08;;;;;;;5.22;2.47;;;;;;;;;;4450347;32;20051;-63
2024/04/10 13:43:34;;;;;;;4.05;2.00;;;;;;;;;;4427134;32;20102;-64
2024/04/10 13:45:59;;;;;;;4.32;1.83;;;;;;;;;;4435035;32;20046;-64
2024/04/10 13:48:24;;;;;;;8.85;4.75;;;;;;;;;;4435785;32;20056;-63
2024/04/10 13:50:49;;;;;;;4.65;1.90;;;;;;;;;;4422664;32;20065;-64
2024/04/10 13:53:15;;;;;;;6.35;1.60;;;;;;;;;;4421125;32;20051;-63
2024/04/10 13:55:42;;;;;;;7.25;2.17;;;;;;;;;;4439212;32;20089;-64
2024/04/10 13:58:07;;;;;;;5.18;1.80;;;;;;;;;;4448821;32;20091;-64
2024/04/10 14:00:32;;;;;;;5.85;2.05;;;;;;;;;;4451767;32;20473;-64
2024/04/10 14:03:00;;;;;;;7.80;2.00;;;;;;;;;;4445207;32;20109;-64
2024/04/10 14:05:25;;;;;;;4.78;1.58;;;;;;;;;;4441292;32;20486;-63
2024/04/10 14:07:50;;;;;;;5.45;2.05;;;;;;;;;;4444096;32;20435;-66
2024/04/10 14:10:15;;;;;;;3.23;1.60;;;;;;;;;;4448636;32;20025;-65
2024/04/10 14:12:41;;;;;;;9.02;1.87;;;;;;;;;;4438439;32;20120;-65
2024/04/10 14:15:06;;;;;;;6.83;4.63;;;;;;;;;;4439111;32;20386;-63
2024/04/10 14:17:31;;;;;;;5.68;3.28;;;;;;;;;;4435340;32;20135;-64
2024/04/10 14:19:56;;;;;;;6.80;2.22;;;;;;;;;;4441130;32;20022;-65
2024/04/10 14:22:22;;;;;;;6.12;1.62;;;;;;;;;;4420857;32;20021;-64
2024/04/10 14:24:47;;;;;;;4.12;2.10;;;;;;;;;;4443570;32;20096;-65
2024/04/10 14:27:12;;;;;;;5.93;2.67;;;;;;;;;;4451347;32;20041;-64
2024/04/10 14:29:37;;;;;;;5.40;1.67;;;;;;;;;;4446720;32;20245;-64
2024/04/10 14:32:02;;;;;;;6.47;2.15;;;;;;;;;;4449736;32;20033;-64
2024/04/10 14:34:28;;;;;;;7.15;2.42;;;;;;;;;;4449492;32;20060;-64
2024/04/10 14:36:53;;;;;;;9.57;3.17;;;;;;;;;;4451587;32;20100;-64
2024/04/10 14:39:18;;;;;;;7.53;2.00;;;;;;;;;;4449693;32;20412;-64
2024/04/10 14:41:43;;;;;;;7.60;2.43;;;;;;;;;;4450482;32;20116;-64
2024/04/10 14:46:52;;;;;;;8.55;3.37;;;;;;;;;;4450083;32;20051;-65